createdAt,value
2017-11-06T00:00:37.101Z,96766.72
2017-11-06T00:03:04.655Z,96761.62
2017-11-06T00:05:32.232Z,96762.94
2017-11-06T00:07:59.803Z,96771.81
2017-11-06T00:10:27.347Z,96772.24
2017-11-06T00:12:54.948Z,96770.98
2017-11-06T00:15:22.534Z,96777.66
2017-11-06T00:17:50.080Z,96779.32
2017-11-06T00:20:17.644Z,96782.66
2017-11-06T00:22:45.197Z,96787.34
2017-11-06T00:25:13.152Z,96788.59
2017-11-06T00:27:40.695Z,96788.53
2017-11-06T00:30:08.249Z,96795.27
2017-11-06T00:32:35.905Z,96796.96
2017-11-06T00:35:03.520Z,96805.75
2017-11-06T00:37:31.097Z,96808.24
2017-11-06T00:39:58.649Z,96807.78
2017-11-06T00:42:26.303Z,96809.04
2017-11-06T00:44:53.867Z,96813.22
2017-11-06T00:47:21.446Z,96811.96
2017-11-06T00:49:49.035Z,96806.06
2017-11-06T00:52:16.593Z,96802.71
2017-11-06T00:54:44.169Z,96797.70
2017-11-06T00:57:11.965Z,96805.27
2017-11-06T00:59:39.909Z,96809.28
2017-11-06T01:02:07.450Z,96808.46
2017-11-06T01:04:35.001Z,96808.00
2017-11-06T01:07:02.581Z,96815.59
2017-11-06T01:09:30.179Z,96813.50
2017-11-06T01:11:57.755Z,96813.28
2017-11-06T01:14:25.304Z,96818.66
2017-11-06T01:16:52.893Z,96821.95
2017-11-06T01:19:20.467Z,96823.64
2017-11-06T01:21:48.101Z,96827.84
2017-11-06T01:24:15.713Z,96831.66
2017-11-06T01:26:43.275Z,96832.82
2017-11-06T01:29:10.849Z,96823.57
2017-11-06T01:31:38.969Z,96818.01
2017-11-06T01:34:06.513Z,96819.14
2017-11-06T01:36:34.258Z,96815.60
2017-11-06T01:39:01.816Z,96823.52
2017-11-06T01:41:29.367Z,96823.55
2017-11-06T01:43:56.908Z,96818.91
2017-11-06T01:46:24.759Z,96819.77
2017-11-06T01:48:52.292Z,96828.19
2017-11-06T01:51:19.845Z,96818.42
2017-11-06T01:53:47.411Z,96831.54
2017-11-06T01:56:14.953Z,96838.30
2017-11-06T01:58:42.863Z,96843.66
2017-11-06T02:01:10.395Z,96844.03
2017-11-06T02:03:37.935Z,96845.72
2017-11-06T02:06:05.492Z,96853.95
2017-11-06T02:08:33.055Z,96846.05
2017-11-06T02:11:00.887Z,96861.58
2017-11-06T02:13:28.429Z,96855.42
2017-11-06T02:15:55.969Z,96858.84
2017-11-06T02:18:23.552Z,96865.96
2017-11-06T02:20:51.092Z,96865.56
2017-11-06T02:23:18.976Z,96868.48
2017-11-06T02:25:46.514Z,96867.22
2017-11-06T02:28:14.050Z,96869.73
2017-11-06T02:30:41.626Z,96866.28
2017-11-06T02:33:09.218Z,96865.42
2017-11-06T02:35:36.790Z,96868.80
2017-11-06T02:38:04.354Z,96870.86
2017-11-06T02:40:31.912Z,96874.20
2017-11-06T02:42:59.447Z,96882.98
2017-11-06T02:45:27.029Z,96884.13
2017-11-06T02:47:54.572Z,96885.75
2017-11-06T02:50:22.114Z,96898.45
2017-11-06T02:52:49.679Z,96901.97
2017-11-06T02:55:17.236Z,96907.80
2017-11-06T02:57:44.783Z,96906.86
2017-11-06T03:00:12.368Z,96911.57
2017-11-06T03:02:39.931Z,96918.84
2017-11-06T03:05:07.466Z,96916.92
2017-11-06T03:07:35.370Z,96914.80
2017-11-06T03:10:02.902Z,96915.38
2017-11-06T03:12:30.484Z,96920.84
2017-11-06T03:14:58.057Z,96922.89
2017-11-06T03:17:25.580Z,96922.42
2017-11-06T03:19:53.151Z,96919.76
2017-11-06T03:22:20.679Z,96915.37
2017-11-06T03:24:48.593Z,96914.26
2017-11-06T03:27:16.126Z,96919.06
2017-11-06T03:29:43.649Z,96914.89
2017-11-06T03:32:11.347Z,96921.80
2017-11-06T03:34:39.016Z,96920.36
2017-11-06T03:37:06.571Z,96908.25
2017-11-06T03:39:34.243Z,96906.02
2017-11-06T03:42:01.847Z,96909.83
2017-11-06T03:44:29.380Z,96910.69
2017-11-06T03:46:56.904Z,96914.03
2017-11-06T03:49:24.456Z,96914.42
2017-11-06T03:51:52.563Z,96917.80
2017-11-06T03:54:20.105Z,96932.55
2017-11-06T03:56:47.641Z,96937.30
2017-11-06T03:59:15.477Z,96942.80
2017-11-06T04:01:43.026Z,96949.88
2017-11-06T04:04:10.573Z,96950.70
2017-11-06T04:06:38.115Z,96955.89
2017-11-06T04:09:05.644Z,96963.00
2017-11-06T04:11:33.196Z,96959.59
2017-11-06T04:14:00.734Z,96960.88
2017-11-06T04:16:28.807Z,96966.81
2017-11-06T04:18:57.034Z,96966.94
2017-11-06T04:21:24.588Z,96975.34
2017-11-06T04:23:52.157Z,96975.34
2017-11-06T04:26:19.683Z,96976.25
2017-11-06T04:28:47.626Z,96985.42
2017-11-06T04:31:15.227Z,96984.31
2017-11-06T04:33:44.698Z,96990.48
2017-11-06T04:36:12.248Z,96991.03
2017-11-06T04:38:39.798Z,96995.52
2017-11-06T04:41:07.344Z,96990.60
2017-11-06T04:43:34.968Z,96993.77
2017-11-06T04:46:02.558Z,96993.81
2017-11-06T04:48:30.104Z,96996.30
2017-11-06T04:50:57.937Z,96995.11
2017-11-06T04:53:25.470Z,96995.11
2017-11-06T04:55:53.013Z,96995.94
2017-11-06T04:58:20.555Z,96990.03
2017-11-06T05:00:48.100Z,96992.91
2017-11-06T05:03:16.009Z,96992.95
2017-11-06T05:05:43.968Z,96994.20
2017-11-06T05:08:11.543Z,96989.78
2017-11-06T05:10:39.103Z,96993.51
2017-11-06T05:13:06.638Z,96991.39
2017-11-06T05:15:34.301Z,96993.47
2017-11-06T05:18:01.852Z,96996.89
2017-11-06T05:20:29.376Z,97002.00
2017-11-06T05:22:57.084Z,97007.94
2017-11-06T05:25:24.628Z,97003.45
2017-11-06T05:27:52.168Z,97001.83
2017-11-06T05:30:20.082Z,97011.39
2017-11-06T05:32:47.632Z,97021.82
2017-11-06T05:35:15.278Z,97026.03
2017-11-06T05:37:42.860Z,97029.37
2017-11-06T05:40:10.410Z,97031.46
2017-11-06T05:42:37.967Z,97028.47
2017-11-06T05:45:05.540Z,97024.73
2017-11-06T05:47:33.082Z,97019.74
2017-11-06T05:50:00.644Z,97016.36
2017-11-06T05:52:28.192Z,97015.77
2017-11-06T05:54:55.762Z,97015.89
2017-11-06T05:57:23.302Z,97019.78
2017-11-06T05:59:50.856Z,97014.00
2017-11-06T06:02:18.513Z,97019.16
2017-11-06T06:04:46.052Z,97027.64
2017-11-06T06:07:13.782Z,97031.09
2017-11-06T06:09:41.336Z,97038.26
2017-11-06T06:12:09.455Z,97042.11
2017-11-06T06:14:37.007Z,97037.43
2017-11-06T06:17:04.554Z,97048.44
2017-11-06T06:19:32.118Z,97051.78
2017-11-06T06:21:59.677Z,97054.66
2017-11-06T06:24:27.603Z,97070.66
2017-11-06T06:26:55.147Z,97071.22
2017-11-06T06:29:22.788Z,97076.36
2017-11-06T06:31:50.346Z,97073.89
2017-11-06T06:34:17.889Z,97081.48
2017-11-06T06:36:45.445Z,97085.69
2017-11-06T06:39:12.994Z,97098.28
2017-11-06T06:41:40.826Z,97113.86
2017-11-06T06:44:08.373Z,97107.17
2017-11-06T06:46:35.909Z,97103.91
2017-11-06T06:49:03.471Z,97101.78
2017-11-06T06:51:31.007Z,97104.77
2017-11-06T06:53:58.566Z,97119.52
2017-11-06T06:56:26.107Z,97128.73
2017-11-06T06:58:53.642Z,97122.80
2017-11-06T07:01:21.195Z,97125.70
2017-11-06T07:03:48.747Z,97120.27
2017-11-06T07:06:16.317Z,97125.35
2017-11-06T07:08:43.851Z,97125.83
2017-11-06T07:11:11.533Z,97125.11
2017-11-06T07:13:39.080Z,97140.34
2017-11-06T07:16:06.972Z,97144.63
2017-11-06T07:18:34.502Z,97144.28
2017-11-06T07:21:02.043Z,97144.75
2017-11-06T07:23:29.607Z,97143.96
2017-11-06T07:25:57.149Z,97153.29
2017-11-06T07:28:25.095Z,97162.97
2017-11-06T07:30:52.654Z,97165.53
2017-11-06T07:33:20.225Z,97164.70
2017-11-06T07:35:47.834Z,97165.56
2017-11-06T07:38:15.386Z,97169.78
2017-11-06T07:40:43.012Z,97175.69
2017-11-06T07:43:10.680Z,97179.23
2017-11-06T07:45:38.342Z,97167.57
2017-11-06T07:48:05.901Z,97165.56
2017-11-06T07:50:33.547Z,97156.43
2017-11-06T07:53:01.096Z,97167.38
2017-11-06T07:55:28.639Z,97167.48
2017-11-06T07:57:56.209Z,97157.52
2017-11-06T08:00:23.740Z,97158.42
2017-11-06T08:02:51.666Z,97164.93
2017-11-06T08:05:19.209Z,97169.77
2017-11-06T08:07:46.803Z,97167.47
2017-11-06T08:10:14.484Z,97168.73
2017-11-06T08:12:42.143Z,97174.20
2017-11-06T08:15:09.728Z,97170.00
2017-11-06T08:17:37.273Z,97169.52
2017-11-06T08:20:04.819Z,97167.36
2017-11-06T08:22:32.389Z,97165.03
2017-11-06T08:25:00.016Z,97166.16
2017-11-06T08:27:27.583Z,97161.14
2017-11-06T08:29:55.129Z,97177.00
2017-11-06T08:32:22.676Z,97166.73
2017-11-06T08:34:50.244Z,97169.76
2017-11-06T08:37:17.795Z,97175.77
2017-11-06T08:39:45.354Z,97178.55
2017-11-06T08:42:13.005Z,97173.55
2017-11-06T08:44:40.583Z,97177.90
2017-11-06T08:47:08.140Z,97181.83
2017-11-06T08:49:35.693Z,97170.98
2017-11-06T08:52:03.305Z,97177.90
2017-11-06T08:54:30.864Z,97181.97
2017-11-06T08:56:58.454Z,97183.95
2017-11-06T08:59:26.004Z,97183.98
2017-11-06T09:01:53.572Z,97189.86
2017-11-06T09:04:21.208Z,97198.91
2017-11-06T09:06:48.992Z,97197.36
2017-11-06T09:09:16.542Z,97207.55
2017-11-06T09:11:44.088Z,97210.58
2017-11-06T09:14:11.651Z,97212.02
2017-11-06T09:16:39.203Z,97216.81
2017-11-06T09:19:06.765Z,97223.45
2017-11-06T09:21:34.329Z,97222.72
2017-11-06T09:24:01.895Z,97222.07
2017-11-06T09:26:29.456Z,97229.61
2017-11-06T09:28:57.384Z,97236.34
2017-11-06T09:31:24.929Z,97235.98
2017-11-06T09:33:52.474Z,97234.95
2017-11-06T09:36:20.051Z,97247.16
2017-11-06T09:38:47.605Z,97254.84
2017-11-06T09:41:15.189Z,97255.96
2017-11-06T09:43:42.739Z,97259.17
2017-11-06T09:46:10.282Z,97262.73
2017-11-06T09:48:37.848Z,97261.01
2017-11-06T09:51:05.401Z,97268.40
2017-11-06T09:53:33.279Z,97269.62
2017-11-06T09:56:00.830Z,97272.33
2017-11-06T09:58:28.377Z,97274.81
2017-11-06T10:00:55.936Z,97271.46
2017-11-06T10:03:23.492Z,97275.39
2017-11-06T10:05:51.053Z,97274.78
2017-11-06T10:08:18.580Z,97277.80
2017-11-06T10:10:46.160Z,97274.38
2017-11-06T10:13:13.712Z,97282.02
2017-11-06T10:15:41.273Z,97282.85
2017-11-06T10:18:08.915Z,97284.94
2017-11-06T10:20:36.487Z,97290.86
2017-11-06T10:23:04.413Z,97289.56
2017-11-06T10:25:32.051Z,97287.39
2017-11-06T10:27:59.598Z,97288.30
2017-11-06T10:30:27.164Z,97293.38
2017-11-06T10:32:54.697Z,97296.77
2017-11-06T10:35:22.318Z,97290.06
2017-11-06T10:37:49.886Z,97293.30
2017-11-06T10:40:17.515Z,97293.88
2017-11-06T10:42:45.233Z,97297.66
2017-11-06T10:45:12.789Z,97302.63
2017-11-06T10:47:40.354Z,97293.77
2017-11-06T10:50:07.892Z,97293.73
2017-11-06T10:52:35.447Z,97294.63
2017-11-06T10:55:03.015Z,97287.42
2017-11-06T10:57:30.566Z,97294.55
2017-11-06T10:59:58.130Z,97289.63
2017-11-06T11:02:25.703Z,97285.42
2017-11-06T11:04:53.342Z,97280.95
2017-11-06T11:07:20.904Z,97277.77
2017-11-06T11:09:48.476Z,97276.03
2017-11-06T11:12:16.193Z,97277.80
2017-11-06T11:14:43.766Z,97275.95
2017-11-06T11:17:11.396Z,97276.42
2017-11-06T11:19:38.942Z,97281.08
2017-11-06T11:22:06.518Z,97284.42
2017-11-06T11:24:34.184Z,97278.08
2017-11-06T11:27:02.089Z,97274.33
2017-11-06T11:29:29.711Z,97280.92
2017-11-06T11:31:57.329Z,97278.48
2017-11-06T11:34:24.899Z,97278.52
2017-11-06T11:36:52.434Z,97277.05
2017-11-06T11:39:20.092Z,97270.48
2017-11-06T11:41:47.617Z,97268.50
2017-11-06T11:44:15.160Z,97261.30
2017-11-06T11:46:42.741Z,97258.81
2017-11-06T11:49:10.300Z,97257.22
2017-11-06T11:51:37.889Z,97248.75
2017-11-06T11:54:05.437Z,97252.03
2017-11-06T11:56:33.106Z,97254.88
2017-11-06T11:59:00.669Z,97253.30
2017-11-06T12:01:28.206Z,97257.58
2017-11-06T12:03:55.761Z,97260.25
2017-11-06T12:06:23.317Z,97256.17
2017-11-06T12:08:50.890Z,97269.27
2017-11-06T12:11:18.431Z,97272.98
2017-11-06T12:13:45.971Z,97270.78
2017-11-06T12:16:13.536Z,97278.95
2017-11-06T12:18:41.190Z,97280.22
2017-11-06T12:21:08.750Z,97274.59
2017-11-06T12:23:36.306Z,97272.90
2017-11-06T12:26:03.866Z,97272.00
2017-11-06T12:28:31.461Z,97272.90
2017-11-06T12:30:59.007Z,97271.20
2017-11-06T12:33:26.590Z,97263.92
2017-11-06T12:35:54.132Z,97274.80
2017-11-06T12:38:21.701Z,97282.26
2017-11-06T12:40:49.255Z,97282.73
2017-11-06T12:43:16.817Z,97280.32
2017-11-06T12:45:44.397Z,97282.48
2017-11-06T12:48:11.986Z,97284.06
2017-11-06T12:50:39.840Z,97272.60
2017-11-06T12:53:07.375Z,97271.98
2017-11-06T12:55:34.961Z,97271.12
2017-11-06T12:58:02.561Z,97270.36
2017-11-06T13:00:30.107Z,97274.86
2017-11-06T13:02:59.130Z,97276.16
2017-11-06T13:05:26.663Z,97277.09
2017-11-06T13:07:54.531Z,97275.33
2017-11-06T13:10:22.136Z,97276.27
2017-11-06T13:12:49.911Z,97278.68
2017-11-06T13:15:17.484Z,97280.34
2017-11-06T13:17:45.193Z,97281.92
2017-11-06T13:20:12.759Z,97276.36
2017-11-06T13:22:40.314Z,97283.49
2017-11-06T13:25:07.852Z,97288.46
2017-11-06T13:27:35.558Z,97292.25
2017-11-06T13:30:03.104Z,97284.33
2017-11-06T13:32:30.769Z,97286.09
2017-11-06T13:34:58.422Z,97290.12
2017-11-06T13:37:25.997Z,97296.89
2017-11-06T13:39:53.556Z,97295.20
2017-11-06T13:42:21.106Z,97296.89
2017-11-06T13:44:48.695Z,97296.50
2017-11-06T13:47:16.237Z,97290.20
2017-11-06T13:49:43.795Z,97301.58
2017-11-06T13:52:11.352Z,97301.19
2017-11-06T13:54:38.956Z,97304.11
2017-11-06T13:57:06.496Z,97308.72
2017-11-06T13:59:34.057Z,97310.37
2017-11-06T14:02:01.722Z,97309.47
2017-11-06T14:04:29.288Z,97309.78
2017-11-06T14:06:56.853Z,97310.17
2017-11-06T14:09:24.401Z,97315.33
2017-11-06T14:11:51.957Z,97314.47
2017-11-06T14:14:19.532Z,97306.78
2017-11-06T14:16:47.193Z,97307.66
2017-11-06T14:19:14.934Z,97319.04
2017-11-06T14:21:42.622Z,97307.81
2017-11-06T14:24:10.264Z,97313.72
2017-11-06T14:26:37.801Z,97315.41
2017-11-06T14:29:05.739Z,97319.63
2017-11-06T14:31:33.297Z,97316.32
2017-11-06T14:34:00.850Z,97322.62
2017-11-06T14:36:28.422Z,97331.09
2017-11-06T14:38:56.011Z,97334.02
2017-11-06T14:41:23.604Z,97337.36
2017-11-06T14:43:51.148Z,97341.11
2017-11-06T14:46:19.052Z,97341.54
2017-11-06T14:48:46.646Z,97336.03
2017-11-06T14:51:14.210Z,97331.72
2017-11-06T14:53:41.828Z,97335.95
2017-11-06T14:56:09.361Z,97340.59
2017-11-06T14:58:36.928Z,97345.64
2017-11-06T15:01:04.794Z,97345.20
2017-11-06T15:03:32.372Z,97343.86
2017-11-06T15:05:59.970Z,97347.56
2017-11-06T15:08:27.527Z,97351.23
2017-11-06T15:10:55.090Z,97349.45
2017-11-06T15:13:22.643Z,97343.58
2017-11-06T15:15:50.650Z,97349.45
2017-11-06T15:18:18.198Z,97354.93
2017-11-06T15:20:45.752Z,97362.49
2017-11-06T15:23:13.324Z,97364.89
2017-11-06T15:25:40.870Z,97361.46
2017-11-06T15:28:08.457Z,97360.51
2017-11-06T15:30:35.987Z,97373.42
2017-11-06T15:33:03.588Z,97367.00
2017-11-06T15:35:31.210Z,97377.56
2017-11-06T15:37:59.114Z,97379.68
2017-11-06T15:40:26.729Z,97381.73
2017-11-06T15:42:54.330Z,97380.86
2017-11-06T15:45:21.944Z,97384.25
2017-11-06T15:47:49.488Z,97380.86
2017-11-06T15:50:17.076Z,97384.47
2017-11-06T15:52:44.635Z,97384.78
2017-11-06T15:55:12.254Z,97386.52
2017-11-06T15:57:39.809Z,97385.66
2017-11-06T16:00:07.359Z,97386.13
2017-11-06T16:02:34.950Z,97388.17
2017-11-06T16:05:03.202Z,97387.69
2017-11-06T16:07:30.792Z,97388.44
2017-11-06T16:09:58.366Z,97398.99
2017-11-06T16:12:26.426Z,97389.73
2017-11-06T16:14:54.025Z,97393.91
2017-11-06T16:17:21.663Z,97396.00
2017-11-06T16:19:49.263Z,97403.20
2017-11-06T16:22:16.827Z,97400.64
2017-11-06T16:24:44.498Z,97407.42
2017-11-06T16:27:12.048Z,97415.46
2017-11-06T16:29:39.955Z,97416.72
2017-11-06T16:32:07.537Z,97424.67
2017-11-06T16:34:35.161Z,97429.80
2017-11-06T16:37:02.893Z,97430.63
2017-11-06T16:39:30.548Z,97420.50
2017-11-06T16:41:58.141Z,97422.16
2017-11-06T16:44:25.735Z,97433.88
2017-11-06T16:46:53.328Z,97439.75
2017-11-06T16:49:20.891Z,97440.67
2017-11-06T16:51:48.464Z,97441.09
2017-11-06T16:54:16.041Z,97431.88
2017-11-06T16:56:43.627Z,97436.06
2017-11-06T16:59:11.217Z,97445.27
2017-11-06T17:01:38.802Z,97438.14
2017-11-06T17:04:06.411Z,97441.84
2017-11-06T17:06:33.985Z,97447.66
2017-11-06T17:09:01.564Z,97448.52
2017-11-06T17:11:29.212Z,97453.56
2017-11-06T17:13:56.933Z,97455.70
2017-11-06T17:16:24.534Z,97461.91
2017-11-06T17:18:52.072Z,97467.38
2017-11-06T17:21:19.704Z,97463.16
2017-11-06T17:23:47.290Z,97461.44
2017-11-06T17:26:15.023Z,97466.04
2017-11-06T17:28:42.591Z,97468.13
2017-11-06T17:31:10.166Z,97466.03
2017-11-06T17:33:37.764Z,97469.77
2017-11-06T17:36:05.328Z,97475.20
2017-11-06T17:38:32.939Z,97468.95
2017-11-06T17:41:00.516Z,97479.84
2017-11-06T17:43:28.084Z,97468.08
2017-11-06T17:45:55.671Z,97472.69
2017-11-06T17:48:23.266Z,97470.12
2017-11-06T17:50:51.280Z,97468.47
2017-11-06T17:53:18.840Z,97474.38
2017-11-06T17:55:46.457Z,97473.94
2017-11-06T17:58:14.476Z,97474.63
2017-11-06T18:00:42.274Z,97474.59
2017-11-06T18:03:09.891Z,97475.80
2017-11-06T18:05:37.468Z,97479.14
2017-11-06T18:08:05.435Z,97476.19
2017-11-06T18:10:33.091Z,97478.76
2017-11-06T18:13:00.852Z,97488.84
2017-11-06T18:15:28.452Z,97484.27
2017-11-06T18:17:56.049Z,97487.14
2017-11-06T18:20:23.692Z,97492.53
2017-11-06T18:22:51.257Z,97490.02
2017-11-06T18:25:19.775Z,97487.92
2017-11-06T18:27:47.847Z,97486.27
2017-11-06T18:30:15.425Z,97488.31
2017-11-06T18:32:43.115Z,97484.14
2017-11-06T18:35:10.783Z,97481.71
2017-11-06T18:37:38.371Z,97488.11
2017-11-06T18:40:05.953Z,97481.80
2017-11-06T18:42:33.590Z,97479.28
2017-11-06T18:45:01.192Z,97480.50
2017-11-06T18:47:29.136Z,97473.77
2017-11-06T18:49:56.729Z,97475.50
2017-11-06T18:52:24.326Z,97479.23
2017-11-06T18:54:51.934Z,97479.19
2017-11-06T18:57:19.543Z,97476.23
2017-11-06T18:59:47.194Z,97469.94
2017-11-06T19:02:14.840Z,97475.38
2017-11-06T19:04:42.474Z,97480.41
2017-11-06T19:07:10.459Z,97480.41
2017-11-06T19:09:38.026Z,97477.41
2017-11-06T19:12:05.692Z,97483.36
2017-11-06T19:14:33.295Z,97478.33
2017-11-06T19:17:00.975Z,97473.28
2017-11-06T19:19:29.181Z,97476.63
2017-11-06T19:21:56.842Z,97480.06
2017-11-06T19:24:24.523Z,97486.36
2017-11-06T19:26:52.186Z,97481.23
2017-11-06T19:29:19.979Z,97492.91
2017-11-06T19:31:47.605Z,97487.48
2017-11-06T19:34:15.253Z,97482.84
2017-11-06T19:36:42.892Z,97482.45
2017-11-06T19:39:11.656Z,97481.62
2017-11-06T19:41:39.372Z,97480.84
2017-11-06T19:44:07.077Z,97484.19
2017-11-06T19:46:34.836Z,97472.02
2017-11-06T19:49:04.834Z,97482.53
2017-11-06T19:51:33.491Z,97480.41
2017-11-06T19:54:01.324Z,97474.97
2017-11-06T19:56:29.435Z,97471.63
2017-11-06T19:58:57.284Z,97480.02
2017-11-06T20:01:25.271Z,97468.20
2017-11-06T20:03:53.113Z,97471.59
2017-11-06T20:06:20.876Z,97468.25
2017-11-06T20:08:49.540Z,97472.06
2017-11-06T20:11:17.743Z,97474.59
2017-11-06T20:13:45.487Z,97475.38
2017-11-06T20:16:13.389Z,97469.02
2017-11-06T20:18:41.277Z,97475.76
2017-11-06T20:21:09.151Z,97474.50
2017-11-06T20:23:37.071Z,97474.49
2017-11-06T20:26:04.949Z,97474.84
2017-11-06T20:28:32.667Z,97475.66
2017-11-06T20:31:00.600Z,97473.58
2017-11-06T20:33:28.483Z,97473.58
2017-11-06T20:35:56.431Z,97476.88
2017-11-06T20:38:24.177Z,97474.41
2017-11-06T20:40:51.908Z,97474.36
2017-11-06T20:43:19.702Z,97471.36
2017-11-06T20:45:48.902Z,97469.71
2017-11-06T20:48:16.946Z,97477.75
2017-11-06T20:50:45.458Z,97470.10
2017-11-06T20:53:13.240Z,97466.80
2017-11-06T20:55:41.083Z,97469.27
2017-11-06T20:58:09.674Z,97476.78
2017-11-06T21:00:38.722Z,97473.45
2017-11-06T21:03:06.434Z,97476.78
2017-11-06T21:05:34.222Z,97470.93
2017-11-06T21:08:01.936Z,97473.88
2017-11-06T21:10:29.596Z,97471.80
2017-11-06T21:12:57.242Z,97469.75
2017-11-06T21:15:25.014Z,97469.75
2017-11-06T21:17:52.732Z,97465.54
2017-11-06T21:20:20.345Z,97469.75
2017-11-06T21:22:47.932Z,97460.06
2017-11-06T21:25:15.723Z,97462.59
2017-11-06T21:27:43.346Z,97466.80
2017-11-06T21:30:16.598Z,97459.19
2017-11-06T21:32:56.745Z,97462.55
2017-11-06T21:35:24.527Z,97462.63
2017-11-06T21:37:52.297Z,97461.81
2017-11-06T21:40:19.918Z,97461.81
2017-11-06T21:42:47.503Z,97466.02
2017-11-06T21:45:15.435Z,97467.23
2017-11-06T21:47:43.008Z,97468.54
2017-11-06T21:50:10.576Z,97468.10
2017-11-06T21:52:38.346Z,97466.85
2017-11-06T21:55:05.911Z,97460.98
2017-11-06T21:57:33.838Z,97455.07
2017-11-06T22:00:01.419Z,97453.90
2017-11-06T22:02:28.988Z,97450.47
2017-11-06T22:04:56.563Z,97450.47
2017-11-06T22:07:24.111Z,97450.47
2017-11-06T22:09:51.779Z,97450.77
2017-11-06T22:12:19.352Z,97444.90
2017-11-06T22:14:46.912Z,97444.52
2017-11-06T22:17:14.644Z,97439.43
2017-11-06T22:19:42.204Z,97443.64
2017-11-06T22:22:09.781Z,97439.00
2017-11-06T22:24:37.350Z,97436.87
2017-11-06T22:27:04.960Z,97447.77
2017-11-06T22:29:32.540Z,97442.73
2017-11-06T22:32:00.119Z,97434.83
2017-11-06T22:34:27.701Z,97435.65
2017-11-06T22:36:55.259Z,97434.78
2017-11-06T22:39:24.040Z,97436.87
2017-11-06T22:41:51.905Z,97436.86
2017-11-06T22:44:19.526Z,97437.26
2017-11-06T22:46:47.093Z,97438.03
2017-11-06T22:49:14.713Z,97439.64
2017-11-06T22:51:42.302Z,97436.73
2017-11-06T22:54:09.839Z,97438.43
2017-11-06T22:56:37.467Z,97442.69
2017-11-06T22:59:05.028Z,97439.78
2017-11-06T23:01:32.632Z,97436.86
2017-11-06T23:04:00.199Z,97436.81
2017-11-06T23:06:27.759Z,97432.17
2017-11-06T23:08:55.421Z,97422.92
2017-11-06T23:11:22.974Z,97417.87
2017-11-06T23:13:50.535Z,97427.14
2017-11-06T23:16:18.087Z,97419.97
2017-11-06T23:18:45.984Z,97414.48
2017-11-06T23:21:13.623Z,97413.67
2017-11-06T23:23:41.218Z,97414.50
2017-11-06T23:26:08.782Z,97418.36
2017-11-06T23:28:36.326Z,97420.05
2017-11-06T23:31:03.900Z,97419.58
2017-11-06T23:33:31.543Z,97414.19
2017-11-06T23:35:59.153Z,97408.33
2017-11-06T23:38:26.701Z,97401.59
2017-11-06T23:40:54.254Z,97403.28
2017-11-06T23:43:21.934Z,97404.16
2017-11-06T23:45:49.465Z,97405.81
2017-11-06T23:48:17.033Z,97394.47
2017-11-06T23:50:44.586Z,97387.31
2017-11-06T23:53:12.525Z,97397.82
2017-11-06T23:55:40.070Z,97400.77
2017-11-06T23:58:07.625Z,97400.34
